createdAt,value
2019-04-22T00:00:50.001Z,18.72
2019-04-22T00:01:40.407Z,18.72
2019-04-22T10:46:15.898Z,"  19.29"
2019-04-22T10:47:15.952Z,"  19.30"
2019-04-22T10:48:16.448Z,"  19.31"
2019-04-22T10:49:16.131Z,"  19.30"
2019-04-22T10:50:16.497Z,"  19.30"
2019-04-22T10:51:16.937Z,"  19.31"
2019-04-22T10:52:02.703Z,"  19.31"
2019-04-22T10:53:01.602Z,"  19.31"
2019-04-22T10:54:01.700Z,"  19.31"
2019-04-22T10:55:01.551Z,"  19.31"
2019-04-22T10:56:01.281Z,"  19.31"
2019-04-22T10:57:01.263Z,"  19.32"
2019-04-22T10:58:23.043Z,"  19.31"
2019-04-22T10:59:22.867Z,"  19.32"
2019-04-22T11:00:23.719Z,"  19.32"
2019-04-22T11:01:23.278Z,"  19.32"
2019-04-22T11:02:23.433Z,"  19.32"
2019-04-22T11:03:24.264Z,"  19.32"
2019-04-22T11:04:22.771Z,"  19.32"
2019-04-22T11:05:23.952Z,"  19.32"
2019-04-22T11:06:23.332Z,"  19.33"
2019-04-22T11:07:31.074Z,"  19.27"
2019-04-22T11:08:31.945Z,"  19.26"
2019-04-22T11:09:23.927Z,"  19.25"
2019-04-22T11:10:35.299Z,"  19.23"
2019-04-22T11:11:34.767Z,"  19.22"
2019-04-22T11:12:25.156Z,"  19.21"
2019-04-22T11:13:24.298Z,"  19.21"
2019-04-22T11:14:23.259Z,"  19.20"
2019-04-22T11:15:22.850Z,"  19.19"
2019-04-22T11:16:23.420Z,"  19.18"
2019-04-22T11:17:23.964Z,"  19.16"
2019-04-22T11:18:23.239Z,"  19.16"
2019-04-22T11:19:23.566Z,"  19.15"
2019-04-22T11:20:23.780Z,"  19.15"
2019-04-22T11:21:23.338Z,"  19.14"
2019-04-22T11:22:27.702Z,"  19.14"
2019-04-22T11:23:22.924Z,"  19.12"
2019-04-22T11:24:23.091Z,"  19.12"
2019-04-22T11:25:23.586Z,"  19.11"
2019-04-22T11:26:23.767Z,"  19.10"
2019-04-22T11:27:23.265Z,"  19.09"
2019-04-22T11:28:23.370Z,"  19.09"
2019-04-22T11:29:23.745Z,"  19.09"
2019-04-22T11:30:24.292Z,"  19.10"
2019-04-22T11:31:24.088Z,"  19.12"
2019-04-22T11:32:22.729Z,"  19.14"
2019-04-22T11:33:48.420Z,"  19.16"
2019-04-22T11:34:49.053Z,"  19.17"
2019-04-22T11:35:48.188Z,"  19.14"
2019-04-22T11:36:48.109Z,"  19.16"
2019-04-22T11:37:48.630Z,"  19.19"
2019-04-22T11:38:52.321Z,"  19.20"
2019-04-22T11:40:00.283Z,"  19.21"
2019-04-22T11:40:52.491Z,"  19.17"
2019-04-22T11:41:48.194Z,"  19.16"
2019-04-22T11:42:48.334Z,"  19.15"
2019-04-22T11:43:49.450Z,"  19.15"
2019-04-22T11:44:48.255Z,"  19.14"
2019-04-22T11:45:49.231Z,"  19.13"
2019-04-22T11:46:49.552Z,"  19.13"
2019-04-22T11:47:48.271Z,"  19.12"
2019-04-22T11:48:48.111Z,"  19.11"
2019-04-22T11:49:48.120Z,"  19.10"
2019-04-22T11:50:48.215Z,"  19.10"
2019-04-22T11:51:48.081Z,"  19.09"
2019-04-22T11:52:48.847Z,"  19.09"
2019-04-22T11:53:49.141Z,"  19.09"
2019-04-22T11:54:48.582Z,"  19.09"
2019-04-22T11:55:49.014Z,"  19.09"
2019-04-22T11:56:49.314Z,"  19.08"
2019-04-22T11:57:48.164Z,"  19.08"
2019-04-22T11:58:48.927Z,"  19.08"
2019-04-22T11:59:49.033Z,"  19.06"
2019-04-22T12:00:49.380Z,"  19.07"
2019-04-22T12:01:48.767Z,"  19.06"
2019-04-22T12:02:49.336Z,"  19.06"
2019-04-22T12:03:49.616Z,"  19.05"
2019-04-22T12:04:49.652Z,"  19.04"
2019-04-22T12:05:48.218Z,"  19.04"
2019-04-22T12:06:49.632Z,"  19.04"
2019-04-22T12:07:48.984Z,"  19.03"
2019-04-22T12:08:48.065Z,"  19.03"
2019-04-22T12:09:48.063Z,"  19.03"
2019-04-22T12:10:53.159Z,"  19.03"
2019-04-22T12:11:49.408Z,"  19.07"
2019-04-22T12:12:49.588Z,"  19.10"
2019-04-22T12:13:48.341Z,"  19.12"
2019-04-22T12:14:48.087Z,"  19.14"
2019-04-22T12:15:49.102Z,"  19.15"
2019-04-22T12:16:49.634Z,"  19.17"
2019-04-22T12:17:48.923Z,"  19.19"
2019-04-22T12:18:49.287Z,"  19.20"
2019-04-22T12:19:48.276Z,"  19.21"
2019-04-22T12:20:57.145Z,"  19.23"
2019-04-22T12:21:57.246Z,"  19.24"
2019-04-22T12:22:57.222Z,"  19.25"
2019-04-22T12:23:58.790Z,"  19.27"
2019-04-22T12:24:58.594Z,"  19.27"
2019-04-22T12:26:03.557Z,"  19.26"
2019-04-22T12:26:58.042Z,"  19.24"
2019-04-22T12:27:57.077Z,"  19.27"
2019-04-22T12:28:57.392Z,"  19.28"
2019-04-22T12:29:57.002Z,"  19.37"
2019-04-22T12:30:57.365Z,"  19.30"
2019-04-22T12:31:57.751Z,"  19.28"
2019-04-22T12:32:58.119Z,"  19.27"
2019-04-22T12:33:57.372Z,"  19.28"
2019-04-22T12:34:57.477Z,"  19.31"
2019-04-22T12:35:57.021Z,"  19.33"
2019-04-22T12:36:58.415Z,"  19.34"
2019-04-22T12:37:59.756Z,"  19.37"
2019-04-22T12:38:57.841Z,"  19.38"
2019-04-22T12:39:58.286Z,"  19.39"
2019-04-22T12:41:00.444Z,"  19.39"
2019-04-22T12:41:58.337Z,"  19.39"
2019-04-22T12:42:57.665Z,"  19.40"
2019-04-22T12:43:57.184Z,"  19.40"
2019-04-22T12:44:58.380Z,"  19.40"
2019-04-22T12:45:58.264Z,"  19.41"
2019-04-22T12:46:56.924Z,"  19.42"
2019-04-22T12:47:57.913Z,"  19.42"
2019-04-22T12:48:58.243Z,"  19.43"
2019-04-22T12:50:08.905Z,"  19.43"
2019-04-22T12:50:58.484Z,"  19.44"
2019-04-22T12:51:57.161Z,"  19.44"
2019-04-22T12:53:01.315Z,"  19.45"
2019-04-22T12:53:57.255Z,"  19.45"
2019-04-22T12:54:57.373Z,"  19.46"
2019-04-22T12:55:57.884Z,"  19.46"
2019-04-22T12:56:57.758Z,"  19.47"
2019-04-22T12:58:00.718Z,"  19.47"
2019-04-22T12:58:57.096Z,"  19.48"
2019-04-22T12:59:57.520Z,"  19.48"
2019-04-22T13:00:57.246Z,"  19.49"
2019-04-22T13:01:58.550Z,"  19.50"
2019-04-22T13:02:57.154Z,"  19.50"
2019-04-22T13:04:03.244Z,"  19.51"
2019-04-22T13:04:58.188Z,"  19.51"
2019-04-22T13:05:57.358Z,"  19.51"
2019-04-22T13:06:57.703Z,"  19.51"
2019-04-22T13:07:57.834Z,"  19.52"
2019-04-22T13:08:57.015Z,"  19.52"
2019-04-22T13:09:57.163Z,"  19.53"
2019-04-22T13:11:00.906Z,"  19.53"
2019-04-22T13:11:57.198Z,"  19.53"
2019-04-22T13:12:58.559Z,"  19.53"
2019-04-22T13:13:57.106Z,"  19.54"
2019-04-22T13:14:57.261Z,"  19.55"
2019-04-22T13:15:57.194Z,"  19.54"
2019-04-22T13:16:57.778Z,"  19.55"
2019-04-22T13:18:05.727Z,"  19.56"
2019-04-22T13:19:02.015Z,"  19.56"
2019-04-22T13:19:30.208Z,"  19.63"
2019-04-22T13:20:30.456Z,"  19.51"
2019-04-22T13:21:30.925Z,"  19.41"
2019-04-22T13:22:30.591Z,"  19.37"
2019-04-22T13:23:29.891Z,"  19.36"
2019-04-22T13:24:30.181Z,"  19.35"
2019-04-22T13:25:32.177Z,"  19.34"
2019-04-22T13:26:29.933Z,"  19.34"
2019-04-22T13:27:30.894Z,"  19.32"
2019-04-22T13:28:31.359Z,"  19.31"
2019-04-22T13:29:31.122Z,"  19.29"
2019-04-22T13:30:30.505Z,"  19.28"
2019-04-22T13:31:30.858Z,"  19.27"
2019-04-22T13:32:31.222Z,"  19.27"
2019-04-22T13:33:30.597Z,"  19.26"
2019-04-22T13:34:34.734Z,"  19.25"
2019-04-22T13:35:29.833Z,"  19.24"
2019-04-22T13:36:31.492Z,"  19.25"
2019-04-22T13:37:30.805Z,"  19.24"
2019-04-22T13:38:31.155Z,"  19.24"
2019-04-22T13:39:31.281Z,"  19.24"
2019-04-22T13:40:30.778Z,"  19.24"
2019-04-22T13:41:35.398Z,"  19.24"
2019-04-22T13:42:31.216Z,"  19.24"
2019-04-22T13:43:31.116Z,"  19.23"
2019-04-22T13:44:31.332Z,"  19.23"
2019-04-22T13:45:29.844Z,"  19.22"
2019-04-22T13:46:31.714Z,"  19.23"
2019-04-22T13:47:46.493Z,"  19.23"
2019-04-22T13:48:46.925Z,"  19.22"
2019-04-22T13:52:02.314Z,"  19.24"
2019-04-22T13:53:03.696Z,"  19.24"
2019-04-22T13:54:35.167Z,"  19.24"
2019-04-22T13:55:09.697Z,"  19.24"
2019-04-22T13:55:48.477Z,"  19.24"
2019-04-22T13:56:48.002Z,"  19.24"
2019-04-22T13:57:47.149Z,"  19.24"
2019-04-22T13:58:46.121Z,"  19.24"
2019-04-22T13:59:38.188Z,"  19.25"
2019-04-22T14:00:30.859Z,"  19.26"
2019-04-22T14:01:30.368Z,"  19.26"
2019-04-22T14:02:30.624Z,"  19.27"
2019-04-22T14:03:30.832Z,"  19.26"
2019-04-22T14:04:30.454Z,"  19.27"
2019-04-22T14:05:31.002Z,"  19.27"
2019-04-22T14:06:31.106Z,"  19.27"
2019-04-22T14:07:30.740Z,"  19.27"
2019-04-22T14:08:31.218Z,"  19.27"
2019-04-22T14:09:30.565Z,"  19.27"
2019-04-22T14:10:30.252Z,"  19.26"
2019-04-22T14:11:37.656Z,"  19.26"
2019-04-22T14:12:30.815Z,"  19.25"
2019-04-22T14:13:30.049Z,"  19.25"
2019-04-22T14:14:30.202Z,"  19.24"
2019-04-22T14:15:29.889Z,"  19.23"
2019-04-22T14:16:31.020Z,"  19.23"
2019-04-22T14:17:31.381Z,"  19.23"
2019-04-22T14:18:30.740Z,"  19.23"
2019-04-22T14:19:29.947Z,"  19.23"
2019-04-22T14:20:32.346Z,"  19.22"
2019-04-22T14:21:30.567Z,"  19.22"
2019-04-22T14:22:30.540Z,"  19.21"
2019-04-22T14:23:30.890Z,"  19.21"
2019-04-22T14:24:30.098Z,"  19.20"
2019-04-22T14:25:30.489Z,"  19.19"
2019-04-22T14:26:44.061Z,"  19.19"
2019-04-22T14:27:39.718Z,"  19.18"
2019-04-22T14:28:30.897Z,"  19.17"
2019-04-22T14:29:29.595Z,"  19.16"
2019-04-22T14:30:30.533Z,"  19.15"
2019-04-22T14:31:30.761Z,"  19.15"
2019-04-22T14:32:31.618Z,"  19.15"
2019-04-22T14:33:30.077Z,"  19.14"
2019-04-22T14:34:30.244Z,"  19.13"
2019-04-22T14:35:31.189Z,"  19.13"
2019-04-22T14:36:29.821Z,"  19.12"
2019-04-22T14:37:29.944Z,"  19.11"
2019-04-22T14:38:30.284Z,"  19.11"
2019-04-22T14:39:30.422Z,"  19.10"
2019-04-22T14:40:30.476Z,"  19.10"
2019-04-22T14:41:40.706Z,"  19.10"
2019-04-22T14:42:51.793Z,"  19.09"
2019-04-22T14:44:00.765Z,"  19.09"
2019-04-22T14:46:04.663Z,"  19.09"
2019-04-22T14:46:50.150Z,"  19.08"
2019-04-22T14:47:58.184Z,"  19.08"
2019-04-22T14:48:49.748Z,"  19.07"
2019-04-22T14:49:53.896Z,"  19.07"
2019-04-22T14:50:53.131Z,"  19.07"
2019-04-22T14:51:49.616Z,"  19.06"
2019-04-22T14:52:50.813Z,"  19.06"
2019-04-22T14:53:44.747Z,"  19.06"
2019-04-22T14:54:44.642Z,"  19.05"
2019-04-22T14:55:32.818Z,"  19.05"
2019-04-22T14:56:30.539Z,"  19.04"
2019-04-22T14:57:31.473Z,"  19.04"
2019-04-22T14:58:31.053Z,"  19.03"
2019-04-22T14:59:30.954Z,"  19.03"
2019-04-22T15:00:29.829Z,"  19.03"
2019-04-22T15:01:30.771Z,"  19.03"
2019-04-22T15:02:29.845Z,"  19.03"
2019-04-22T15:03:29.654Z,"  19.03"
2019-04-22T15:04:31.007Z,"  19.03"
2019-04-22T15:05:30.292Z,"  19.02"
2019-04-22T15:06:31.534Z,"  19.02"
2019-04-22T15:07:30.796Z,"  19.01"
2019-04-22T15:08:30.982Z,"  19.01"
2019-04-22T15:09:30.103Z,"  19.01"
2019-04-22T15:10:29.885Z,"  19.00"
2019-04-22T15:11:42.765Z,"  19.00"
2019-04-22T15:12:34.538Z,"  19.00"
2019-04-22T15:13:31.471Z,"  18.99"
2019-04-22T15:14:29.969Z,"  18.99"
2019-04-22T15:15:31.186Z,"  18.99"
2019-04-22T15:16:29.960Z,"  18.98"
2019-04-22T15:17:31.356Z,"  18.98"
2019-04-22T15:18:29.852Z,"  18.98"
2019-04-22T15:19:29.788Z,"  18.97"
2019-04-22T15:20:29.966Z,"  18.97"
2019-04-22T15:21:29.668Z,"  18.97"
2019-04-22T15:22:30.804Z,"  18.97"
2019-04-22T15:23:31.006Z,"  18.97"
2019-04-22T15:24:29.679Z,"  18.97"
2019-04-22T15:25:30.582Z,"  18.97"
2019-04-22T15:26:30.714Z,"  18.97"
2019-04-22T15:27:31.016Z,"  18.97"
2019-04-22T15:28:31.303Z,"  18.96"
2019-04-22T15:29:29.794Z,"  18.96"
2019-04-22T15:30:29.778Z,"  18.95"
2019-04-22T15:31:31.228Z,"  18.96"
2019-04-22T15:32:29.767Z,"  18.95"
2019-04-22T15:33:29.736Z,"  18.94"
2019-04-22T15:34:30.628Z,"  18.94"
2019-04-22T15:35:31.392Z,"  18.95"
2019-04-22T15:36:30.494Z,"  18.94"
2019-04-22T15:37:31.090Z,"  18.94"
2019-04-22T15:38:30.196Z,"  18.93"
2019-04-22T15:39:31.286Z,"  18.96"
2019-04-22T15:40:30.696Z,"  18.96"
2019-04-22T15:41:30.557Z,"  18.98"
2019-04-22T15:42:35.567Z,"  18.98"
2019-04-22T15:43:31.293Z,"  18.99"
2019-04-22T15:44:30.383Z,"  19.00"
2019-04-22T15:45:30.647Z,"  19.01"
2019-04-22T15:46:29.897Z,"  19.02"
2019-04-22T15:47:30.990Z,"  19.02"
2019-04-22T15:48:32.218Z,"  19.03"
2019-04-22T15:49:29.878Z,"  19.03"
2019-04-22T15:50:30.899Z,"  19.03"
2019-04-22T15:51:30.830Z,"  19.04"
2019-04-22T15:52:36.575Z,"  19.05"
2019-04-22T15:53:29.868Z,"  19.07"
2019-04-22T15:54:29.924Z,"  19.09"
2019-04-22T15:55:29.822Z,"  19.10"
2019-04-22T15:56:30.643Z,"  19.11"
2019-04-22T15:57:30.795Z,"  19.09"
2019-04-22T15:58:30.224Z,"  19.10"
2019-04-22T15:59:47.718Z,"  19.11"
2019-04-22T16:00:41.532Z,"  19.11"
2019-04-22T16:01:33.999Z,"  19.11"
2019-04-22T16:02:29.888Z,"  19.11"
2019-04-22T16:03:29.707Z,"  19.12"
2019-04-22T16:04:30.854Z,"  19.13"
2019-04-22T16:05:30.315Z,"  19.13"
2019-04-22T16:06:30.184Z,"  19.13"
2019-04-22T16:07:29.828Z,"  19.13"
2019-04-22T16:08:32.430Z,"  19.15"
2019-04-22T16:09:31.101Z,"  19.15"
2019-04-22T16:10:30.414Z,"  19.15"
2019-04-22T16:11:29.812Z,"  19.16"
2019-04-22T16:12:35.906Z,"  19.17"
2019-04-22T16:13:34.015Z,"  19.17"
2019-04-22T16:14:35.088Z,"  19.16"
2019-04-22T16:15:30.727Z,"  19.16"
2019-04-22T16:16:30.517Z,"  19.16"
2019-04-22T16:17:30.650Z,"  19.16"
2019-04-22T16:18:30.711Z,"  19.17"
2019-04-22T16:19:30.790Z,"  19.18"
2019-04-22T16:20:30.083Z,"  19.17"
2019-04-22T16:21:37.759Z,"  19.17"
2019-04-22T16:22:30.652Z,"  19.17"
2019-04-22T16:23:29.868Z,"  19.19"
2019-04-22T16:24:29.876Z,"  19.20"
2019-04-22T16:25:31.245Z,"  19.21"
2019-04-22T16:26:30.569Z,"  19.22"
2019-04-22T16:27:30.188Z,"  19.22"
2019-04-22T16:28:31.187Z,"  19.23"
2019-04-22T16:29:29.801Z,"  19.23"
2019-04-22T16:30:30.927Z,"  19.24"
2019-04-22T16:31:29.553Z,"  19.25"
2019-04-22T16:32:29.906Z,"  19.25"
2019-04-22T16:33:31.059Z,"  19.24"
2019-04-22T16:34:29.611Z,"  19.25"
2019-04-22T16:35:30.798Z,"  19.24"
2019-04-22T16:36:30.960Z,"  19.24"
2019-04-22T16:37:30.568Z,"  19.24"
2019-04-22T16:38:30.905Z,"  19.24"
2019-04-22T16:39:30.961Z,"  19.24"
2019-04-22T16:40:30.542Z,"  19.25"
2019-04-22T16:41:30.658Z,"  19.25"
2019-04-22T16:42:36.895Z,"  19.25"
2019-04-22T16:43:30.843Z,"  19.25"
2019-04-22T16:44:30.289Z,"  19.25"
2019-04-22T16:45:29.780Z,"  19.25"
2019-04-22T16:46:29.836Z,"  19.26"
2019-04-22T16:47:31.172Z,"  19.26"
2019-04-22T16:48:29.860Z,"  19.26"
2019-04-22T16:49:29.850Z,"  19.27"
2019-04-22T16:50:29.756Z,"  19.27"
2019-04-22T16:51:29.842Z,"  19.27"
2019-04-22T16:52:30.249Z,"  19.27"
2019-04-22T16:53:29.590Z,"  19.27"
2019-04-22T16:54:30.731Z,"  19.27"
2019-04-22T16:55:30.690Z,"  19.27"
2019-04-22T16:56:33.116Z,"  19.27"
2019-04-22T16:57:30.075Z,"  19.27"
2019-04-22T16:58:30.519Z,"  19.27"
2019-04-22T16:59:30.748Z,"  19.27"
2019-04-22T17:00:30.882Z,"  19.27"
2019-04-22T17:01:30.504Z,"  19.26"
2019-04-22T17:02:30.732Z,"  19.26"
2019-04-22T17:03:30.801Z,"  19.25"
2019-04-22T17:04:30.479Z,"  19.25"
2019-04-22T17:05:29.679Z,"  19.25"
2019-04-22T17:06:29.981Z,"  19.24"
2019-04-22T17:07:30.029Z,"  19.23"
2019-04-22T17:08:30.642Z,"  19.23"
2019-04-22T17:09:29.903Z,"  19.23"
2019-04-22T17:10:29.527Z,"  19.23"
2019-04-22T17:11:29.900Z,"  19.24"
2019-04-22T17:12:43.274Z,"  19.25"
2019-04-22T17:13:32.767Z,"  19.26"
2019-04-22T17:14:35.042Z,"  19.26"
2019-04-22T17:15:31.213Z,"  19.25"
2019-04-22T17:16:30.611Z,"  19.26"
2019-04-22T17:17:30.806Z,"  19.26"
2019-04-22T17:18:30.999Z,"  19.25"
2019-04-22T17:19:31.084Z,"  19.24"
2019-04-22T17:20:29.674Z,"  19.24"
2019-04-22T17:21:29.940Z,"  19.25"
2019-04-22T17:22:29.703Z,"  19.26"
2019-04-22T17:23:29.787Z,"  19.25"
2019-04-22T17:24:30.033Z,"  19.25"
2019-04-22T17:25:30.179Z,"  19.26"
2019-04-22T17:26:30.409Z,"  19.26"
2019-04-22T17:27:32.414Z,"  19.26"
2019-04-22T17:28:31.194Z,"  19.26"
2019-04-22T17:29:30.436Z,"  19.25"
2019-04-22T17:30:30.912Z,"  19.24"
2019-04-22T17:31:30.948Z,"  19.23"
2019-04-22T17:32:29.588Z,"  19.22"
2019-04-22T17:33:30.744Z,"  19.21"
2019-04-22T17:34:29.727Z,"  19.21"
2019-04-22T17:35:30.097Z,"  19.20"
2019-04-22T17:36:29.847Z,"  19.19"
2019-04-22T17:37:33.365Z,"  19.18"
2019-04-22T17:38:40.863Z,"  19.17"
2019-04-22T17:39:41.182Z,"  19.17"
2019-04-22T17:40:42.208Z,"  19.16"
2019-04-22T17:41:50.665Z,"  19.16"
2019-04-22T17:43:53.815Z,"  19.15"
2019-04-22T17:45:01.077Z,"  19.15"
2019-04-22T17:45:54.097Z,"  19.14"
2019-04-22T17:46:44.625Z,"  19.14"
2019-04-22T17:47:45.196Z,"  19.13"
2019-04-22T17:48:51.772Z,"  19.13"
2019-04-22T17:49:54.100Z,"  19.12"
2019-04-22T17:50:57.773Z,"  19.12"
2019-04-22T17:51:53.496Z,"  19.11"
2019-04-22T17:52:42.065Z,"  19.11"
2019-04-22T17:53:53.457Z,"  19.10"
2019-04-22T17:54:44.724Z,"  19.10"
2019-04-22T17:55:49.441Z,"  19.10"
2019-04-22T17:56:43.643Z,"  19.09"
2019-04-22T17:57:41.021Z,"  19.09"
2019-04-22T17:59:42.083Z,"  19.09"
2019-04-22T18:00:43.440Z,"  19.08"
2019-04-22T18:01:49.314Z,"  19.08"
2019-04-22T18:02:43.459Z,"  19.07"
2019-04-22T18:03:37.497Z,"  19.07"
2019-04-22T18:04:40.347Z,"  19.07"
2019-04-22T18:05:40.935Z,"  19.06"
2019-04-22T18:06:54.850Z,"  19.06"
2019-04-22T18:07:49.074Z,"  19.06"
2019-04-22T18:08:50.656Z,"  19.06"
2019-04-22T18:10:16.146Z,"  19.05"
2019-04-22T18:10:47.674Z,"  19.05"
2019-04-22T18:11:51.240Z,"  19.04"
2019-04-22T18:12:53.436Z,"  19.04"
2019-04-22T18:13:51.617Z,"  19.04"
2019-04-22T18:14:52.887Z,"  19.03"
2019-04-22T18:16:01.035Z,"  19.03"
2019-04-22T18:16:52.094Z,"  19.03"
2019-04-22T18:17:54.179Z,"  19.03"
2019-04-22T18:18:52.838Z,"  19.03"
2019-04-22T18:19:46.234Z,"  19.03"
2019-04-22T18:20:45.868Z,"  19.03"
2019-04-22T18:21:46.105Z,"  19.02"
2019-04-22T18:22:44.618Z,"  19.02"
2019-04-22T18:23:41.706Z,"  19.02"
2019-04-22T18:24:46.430Z,"  19.02"
2019-04-22T18:25:53.743Z,"  19.02"
2019-04-22T18:26:47.864Z,"  19.01"
2019-04-22T18:27:55.220Z,"  19.01"
2019-04-22T18:28:43.569Z,"  19.01"
2019-04-22T18:29:48.628Z,"  19.01"
2019-04-22T18:30:46.671Z,"  19.00"
2019-04-22T18:31:40.914Z,"  19.00"
2019-04-22T18:32:50.577Z,"  19.00"
2019-04-22T18:33:46.856Z,"  19.00"
2019-04-22T18:34:42.614Z,"  19.00"
2019-04-22T18:35:46.858Z,"  19.00"
2019-04-22T18:36:45.717Z,"  19.00"
2019-04-22T18:37:51.671Z,"  19.00"
2019-04-22T18:38:46.601Z,"  19.00"
2019-04-22T18:39:52.767Z,"  19.00"
2019-04-22T18:40:45.887Z,"  19.00"
2019-04-22T18:41:48.961Z,"  19.00"
2019-04-22T18:42:52.508Z,"  19.01"
2019-04-22T18:43:53.143Z,"  19.01"
2019-04-22T18:44:55.646Z,"  19.01"
2019-04-22T18:46:50.893Z,"  19.02"
2019-04-22T18:47:44.318Z,"  19.01"
2019-04-22T18:48:54.069Z,"  19.02"
2019-04-22T18:49:41.779Z,"  19.02"
2019-04-22T18:50:52.461Z,"  19.02"
2019-04-22T18:51:46.410Z,"  19.03"
2019-04-22T18:52:43.618Z,"  19.03"
2019-04-22T18:54:45.764Z,"  19.03"
2019-04-22T18:55:44.336Z,"  19.03"
2019-04-22T18:56:46.664Z,"  19.03"
2019-04-22T18:57:41.585Z,"  19.03"
2019-04-22T18:58:38.217Z,"  19.03"
2019-04-22T18:59:34.603Z,"  19.03"
2019-04-22T19:00:29.678Z,"  19.03"
2019-04-22T19:01:30.086Z,"  19.04"
2019-04-22T19:02:32.125Z,"  19.04"
2019-04-22T19:03:31.803Z,"  19.04"
2019-04-22T19:04:40.926Z,"  19.04"
2019-04-22T19:05:46.804Z,"  19.04"
2019-04-22T19:06:50.482Z,"  19.05"
2019-04-22T19:08:04.811Z,"  19.05"
2019-04-22T19:08:50.565Z,"  19.06"
2019-04-22T19:11:00.604Z,"  19.05"
2019-04-22T19:12:04.724Z,"  19.05"
2019-04-22T19:13:06.472Z,"  19.05"
2019-04-22T19:14:05.963Z,"  19.07"
2019-04-22T19:15:54.113Z,"  19.11"
2019-04-22T19:16:52.103Z,"  19.11"
2019-04-22T19:17:47.677Z,"  19.12"
2019-04-22T19:19:07.698Z,"  19.13"
2019-04-22T19:19:56.034Z,"  19.14"
2019-04-22T19:21:43.383Z,"  19.16"
2019-04-22T19:23:52.249Z,"  19.17"
2019-04-22T19:24:47.345Z,"  19.17"
2019-04-22T19:25:50.018Z,"  19.18"
2019-04-22T19:26:55.985Z,"  19.20"
2019-04-22T19:27:45.235Z,"  19.20"
2019-04-22T19:28:48.479Z,"  19.21"
2019-04-22T19:29:54.736Z,"  19.21"
2019-04-22T19:30:59.073Z,"  19.21"
2019-04-22T19:31:53.770Z,"  19.21"
2019-04-22T19:32:43.081Z,"  19.21"
2019-04-22T19:33:53.690Z,"  19.22"
2019-04-22T19:34:48.202Z,"  19.23"
2019-04-22T19:36:46.310Z,"  19.23"
2019-04-22T19:37:45.152Z,"  19.24"
2019-04-22T19:38:49.846Z,"  19.23"
2019-04-22T19:40:00.638Z,"  19.23"
2019-04-22T19:41:00.924Z,"  19.23"
2019-04-22T19:41:55.776Z,"  19.22"
2019-04-22T19:42:56.217Z,"  19.23"
2019-04-22T19:43:49.138Z,"  19.22"
2019-04-22T19:44:53.209Z,"  19.22"
2019-04-22T19:45:49.020Z,"  19.22"
2019-04-22T19:47:10.722Z,"  19.22"
2019-04-22T19:48:45.737Z,"  19.22"
2019-04-22T19:49:52.410Z,"  19.22"
2019-04-22T19:50:59.090Z,"  19.23"
2019-04-22T19:51:59.007Z,"  19.22"
2019-04-22T19:52:50.033Z,"  19.22"
2019-04-22T19:53:51.275Z,"  19.21"
2019-04-22T19:54:57.304Z,"  19.22"
2019-04-22T19:56:40.354Z,"  19.24"
2019-04-22T19:57:50.709Z,"  19.23"
2019-04-22T19:58:41.420Z,"  19.24"
2019-04-22T19:59:45.309Z,"  19.24"
2019-04-22T20:00:41.779Z,"  19.23"
2019-04-22T20:01:48.638Z,"  19.23"
2019-04-22T20:02:51.488Z,"  19.25"
2019-04-22T20:03:59.778Z,"  19.25"
2019-04-22T20:04:54.495Z,"  19.25"
2019-04-22T20:06:47.753Z,"  19.26"
2019-04-22T20:07:37.889Z,"  19.27"
2019-04-22T20:08:48.840Z,"  19.27"
2019-04-22T20:11:45.132Z,"  19.28"
2019-04-22T20:12:49.981Z,"  19.28"
2019-04-22T20:13:49.664Z,"  19.29"
2019-04-22T20:14:51.140Z,"  19.29"
2019-04-22T20:15:43.462Z,"  19.30"
2019-04-22T20:16:46.593Z,"  19.31"
2019-04-22T20:18:11.824Z,"  19.31"
2019-04-22T20:18:52.373Z,"  19.32"
2019-04-22T20:20:56.913Z,"  19.32"
2019-04-22T20:22:43.103Z,"  19.33"
2019-04-22T20:23:42.043Z,"  19.32"
2019-04-22T20:24:43.468Z,"  19.33"
2019-04-22T20:25:44.724Z,"  19.32"
2019-04-22T20:28:45.001Z,"  19.31"
2019-04-22T20:29:49.454Z,"  19.31"
2019-04-22T20:30:46.710Z,"  19.31"
2019-04-22T20:31:53.083Z,"  19.32"
2019-04-22T20:32:41.351Z,"  19.33"
2019-04-22T20:34:52.857Z,"  19.33"
2019-04-22T20:35:46.523Z,"  19.32"
2019-04-22T20:37:03.807Z,"  19.32"
2019-04-22T20:37:54.889Z,"  19.32"
2019-04-22T20:38:46.642Z,"  19.33"
2019-04-22T20:39:50.234Z,"  19.32"
2019-04-22T20:40:49.342Z,"  19.32"
2019-04-22T20:41:36.668Z,"  19.31"
2019-04-22T20:42:56.752Z,"  19.31"
2019-04-22T20:43:52.528Z,"  19.30"
2019-04-22T20:44:52.125Z,"  19.29"
2019-04-22T20:45:45.946Z,"  19.30"
2019-04-22T20:46:48.951Z,"  19.30"
2019-04-22T20:47:36.875Z,"  19.30"
2019-04-22T20:48:43.875Z,"  19.30"
2019-04-22T20:49:44.647Z,"  19.29"
2019-04-22T20:50:49.904Z,"  19.29"
2019-04-22T20:52:00.305Z,"  19.29"
2019-04-22T20:52:50.429Z,"  19.29"
2019-04-22T20:53:56.589Z,"  19.29"
2019-04-22T20:54:50.881Z,"  19.28"
2019-04-22T20:56:45.080Z,"  19.29"
2019-04-22T20:57:50.109Z,"  19.28"
2019-04-22T20:58:46.668Z,"  19.29"
2019-04-22T20:59:49.835Z,"  19.29"
2019-04-22T21:00:40.530Z,"  19.29"
2019-04-22T21:01:43.164Z,"  19.28"
2019-04-22T21:02:37.613Z,"  19.28"
2019-04-22T21:03:39.230Z,"  19.27"
2019-04-22T21:04:41.471Z,"  19.27"
2019-04-22T21:05:40.121Z,"  19.26"
2019-04-22T21:06:42.181Z,"  19.26"
2019-04-22T21:07:47.943Z,"  19.25"
2019-04-22T21:08:50.349Z,"  19.24"
2019-04-22T21:09:49.198Z,"  19.24"
2019-04-22T21:10:45.136Z,"  19.23"
2019-04-22T21:11:45.105Z,"  19.22"
2019-04-22T21:12:39.963Z,"  19.22"
2019-04-22T21:13:50.489Z,"  19.21"
2019-04-22T21:14:55.144Z,"  19.21"
2019-04-22T21:15:51.724Z,"  19.21"
2019-04-22T21:16:46.137Z,"  19.20"
2019-04-22T21:17:43.140Z,"  19.20"
2019-04-22T21:18:44.676Z,"  19.19"
2019-04-22T21:19:54.722Z,"  19.19"
2019-04-22T21:20:54.751Z,"  19.17"
2019-04-22T21:21:46.067Z,"  19.18"
2019-04-22T21:22:48.220Z,"  19.17"
2019-04-22T21:23:40.904Z,"  19.16"
2019-04-22T21:25:36.782Z,"  19.15"
2019-04-22T21:26:43.804Z,"  19.15"
2019-04-22T21:27:50.973Z,"  19.14"
2019-04-22T21:28:49.056Z,"  19.14"
2019-04-22T21:29:40.833Z,"  19.14"
2019-04-22T21:30:43.049Z,"  19.13"
2019-04-22T21:31:51.198Z,"  19.13"
2019-04-22T21:32:49.537Z,"  19.12"
2019-04-22T21:33:42.903Z,"  19.11"
2019-04-22T21:34:55.460Z,"  19.10"
2019-04-22T21:35:59.583Z,"  19.10"
2019-04-22T21:36:46.176Z,"  19.10"
2019-04-22T21:37:43.060Z,"  19.09"
2019-04-22T21:38:48.288Z,"  19.09"
2019-04-22T21:39:41.102Z,"  19.09"
2019-04-22T21:41:43.238Z,"  19.09"
2019-04-22T21:42:54.833Z,"  19.08"
2019-04-22T21:43:52.549Z,"  19.08"
2019-04-22T21:44:47.054Z,"  19.08"
2019-04-22T21:45:52.364Z,"  19.07"
2019-04-22T21:46:57.709Z,"  19.06"
2019-04-22T21:48:50.835Z,"  19.06"
2019-04-22T21:49:56.663Z,"  19.06"
2019-04-22T21:50:57.425Z,"  19.05"
2019-04-22T21:51:55.251Z,"  19.05"
2019-04-22T21:52:57.014Z,"  19.04"
2019-04-22T21:54:53.623Z,"  19.03"
2019-04-22T21:56:04.337Z,"  19.03"
2019-04-22T21:57:04.414Z,"  19.03"
2019-04-22T21:57:57.768Z,"  19.03"
2019-04-22T21:58:51.147Z,"  19.03"
2019-04-22T21:59:38.488Z,"  19.03"
2019-04-22T22:00:53.768Z,"  19.02"
2019-04-22T22:01:52.902Z,"  19.02"
2019-04-22T22:02:52.561Z,"  19.02"
2019-04-22T22:03:50.336Z,"  19.01"
2019-04-22T22:04:47.309Z,"  19.01"
2019-04-22T22:05:42.372Z,"  19.01"
2019-04-22T22:06:41.466Z,"  19.01"
2019-04-22T22:07:32.585Z,"  19.00"
2019-04-22T22:08:55.446Z,"  19.00"
2019-04-22T22:09:48.978Z,"  19.00"
2019-04-22T22:10:45.019Z,"  19.00"
2019-04-22T22:11:49.761Z,"  18.99"
2019-04-22T22:12:48.868Z,"  18.99"
2019-04-22T22:13:50.265Z,"  18.98"
2019-04-22T22:14:50.138Z,"  18.98"
2019-04-22T22:15:51.073Z,"  18.98"
2019-04-22T22:16:42.938Z,"  18.98"
2019-04-22T22:17:50.391Z,"  18.97"
2019-04-22T22:18:59.213Z,"  18.97"
2019-04-22T22:19:49.609Z,"  18.97"
2019-04-22T22:21:02.244Z,"  18.97"
2019-04-22T22:22:45.356Z,"  18.97"
2019-04-22T22:23:52.150Z,"  18.97"
2019-04-22T22:24:49.836Z,"  18.96"
2019-04-22T22:25:50.698Z,"  18.96"
2019-04-22T22:26:50.462Z,"  18.96"
2019-04-22T22:27:46.342Z,"  18.95"
2019-04-22T22:29:06.851Z,"  18.95"
2019-04-22T22:30:05.614Z,"  18.96"
2019-04-22T22:30:54.738Z,"  18.95"
2019-04-22T22:31:55.637Z,"  18.94"
2019-04-22T22:32:42.296Z,"  18.95"
2019-04-22T22:33:51.444Z,"  18.95"
2019-04-22T22:34:50.814Z,"  18.94"
2019-04-22T22:35:51.954Z,"  18.94"
2019-04-22T22:36:40.391Z,"  18.94"